sensor_id;sensor_type;location;lat;lon;timestamp;P1;durP1;ratioP1;P2;durP2;ratioP2
76848;SDS011;65814;51.134;16.980;2023-03-13T00:01:37;9.00;;;4.60;;
76848;SDS011;65814;51.134;16.980;2023-03-13T00:04:06;8.00;;;4.40;;
76848;SDS011;65814;51.134;16.980;2023-03-13T00:06:37;5.40;;;4.50;;
76848;SDS011;65814;51.134;16.980;2023-03-13T00:09:08;5.90;;;3.80;;
76848;SDS011;65814;51.134;16.980;2023-03-13T00:11:37;5.50;;;3.80;;
76848;SDS011;65814;51.134;16.980;2023-03-13T00:14:05;3.70;;;3.30;;
76848;SDS011;65814;51.134;16.980;2023-03-13T00:16:34;7.00;;;3.00;;
76848;SDS011;65814;51.134;16.980;2023-03-13T00:19:05;5.40;;;3.20;;
76848;SDS011;65814;51.134;16.980;2023-03-13T00:21:33;4.30;;;3.20;;
76848;SDS011;65814;51.134;16.980;2023-03-13T00:24:04;4.50;;;3.40;;
76848;SDS011;65814;51.134;16.980;2023-03-13T00:26:32;5.20;;;3.40;;
76848;SDS011;65814;51.134;16.980;2023-03-13T00:29:00;4.50;;;3.00;;
76848;SDS011;65814;51.134;16.980;2023-03-13T00:31:28;3.50;;;2.60;;
76848;SDS011;65814;51.134;16.980;2023-03-13T00:34:01;5.50;;;3.40;;
76848;SDS011;65814;51.134;16.980;2023-03-13T00:36:32;6.50;;;3.60;;
76848;SDS011;65814;51.134;16.980;2023-03-13T00:39:01;5.70;;;3.40;;
76848;SDS011;65814;51.134;16.980;2023-03-13T00:41:31;4.60;;;3.50;;
76848;SDS011;65814;51.134;16.980;2023-03-13T00:44:00;6.10;;;3.10;;
76848;SDS011;65814;51.134;16.980;2023-03-13T00:46:29;4.20;;;3.00;;
76848;SDS011;65814;51.134;16.980;2023-03-13T00:48:57;5.10;;;3.10;;
76848;SDS011;65814;51.134;16.980;2023-03-13T00:51:26;5.20;;;4.00;;
76848;SDS011;65814;51.134;16.980;2023-03-13T00:53:54;6.40;;;3.50;;
76848;SDS011;65814;51.134;16.980;2023-03-13T00:56:23;4.90;;;2.90;;
76848;SDS011;65814;51.134;16.980;2023-03-13T00:58:54;4.20;;;3.30;;
76848;SDS011;65814;51.134;16.980;2023-03-13T01:01:32;4.50;;;3.10;;
76848;SDS011;65814;51.134;16.980;2023-03-13T01:04:02;3.50;;;2.60;;
76848;SDS011;65814;51.134;16.980;2023-03-13T01:06:33;4.50;;;3.00;;
76848;SDS011;65814;51.134;16.980;2023-03-13T01:09:03;5.80;;;3.90;;
76848;SDS011;65814;51.134;16.980;2023-03-13T01:11:36;4.30;;;3.10;;
76848;SDS011;65814;51.134;16.980;2023-03-13T01:14:07;5.10;;;3.60;;
76848;SDS011;65814;51.134;16.980;2023-03-13T01:16:37;5.30;;;3.40;;
76848;SDS011;65814;51.134;16.980;2023-03-13T01:19:09;4.30;;;2.70;;
76848;SDS011;65814;51.134;16.980;2023-03-13T01:21:40;4.60;;;3.10;;
76848;SDS011;65814;51.134;16.980;2023-03-13T01:24:09;4.50;;;2.90;;
76848;SDS011;65814;51.134;16.980;2023-03-13T01:26:38;7.00;;;3.30;;
76848;SDS011;65814;51.134;16.980;2023-03-13T01:29:06;5.60;;;3.50;;
76848;SDS011;65814;51.134;16.980;2023-03-13T01:31:37;5.60;;;3.60;;
76848;SDS011;65814;51.134;16.980;2023-03-13T01:37:02;4.30;;;3.20;;
76848;SDS011;65814;51.134;16.980;2023-03-13T01:39:30;6.90;;;4.30;;
76848;SDS011;65814;51.134;16.980;2023-03-13T01:41:58;8.00;;;4.70;;
76848;SDS011;65814;51.134;16.980;2023-03-13T01:44:26;5.40;;;4.30;;
76848;SDS011;65814;51.134;16.980;2023-03-13T01:46:54;4.90;;;3.50;;
76848;SDS011;65814;51.134;16.980;2023-03-13T01:49:24;6.30;;;4.00;;
76848;SDS011;65814;51.134;16.980;2023-03-13T01:52:29;5.80;;;3.50;;
76848;SDS011;65814;51.134;16.980;2023-03-13T01:54:54;7.50;;;3.30;;
76848;SDS011;65814;51.134;16.980;2023-03-13T01:57:24;8.70;;;4.80;;
76848;SDS011;65814;51.134;16.980;2023-03-13T01:59:57;7.70;;;4.00;;
76848;SDS011;65814;51.134;16.980;2023-03-13T02:02:29;5.30;;;3.60;;
76848;SDS011;65814;51.134;16.980;2023-03-13T02:05:00;7.20;;;3.80;;
76848;SDS011;65814;51.134;16.980;2023-03-13T02:07:32;6.90;;;4.30;;
76848;SDS011;65814;51.134;16.980;2023-03-13T02:10:03;7.60;;;4.30;;
76848;SDS011;65814;51.134;16.980;2023-03-13T02:12:33;5.50;;;3.90;;
76848;SDS011;65814;51.134;16.980;2023-03-13T02:15:07;7.70;;;4.50;;
76848;SDS011;65814;51.134;16.980;2023-03-13T02:17:37;8.00;;;4.30;;
76848;SDS011;65814;51.134;16.980;2023-03-13T02:20:05;9.60;;;4.90;;
76848;SDS011;65814;51.134;16.980;2023-03-13T02:30:25;9.70;;;4.50;;
76848;SDS011;65814;51.134;16.980;2023-03-13T02:32:54;7.40;;;5.40;;
76848;SDS011;65814;51.134;16.980;2023-03-13T02:35:22;8.90;;;5.50;;
76848;SDS011;65814;51.134;16.980;2023-03-13T02:37:54;9.40;;;5.80;;
76848;SDS011;65814;51.134;16.980;2023-03-13T02:40:26;7.80;;;5.50;;
76848;SDS011;65814;51.134;16.980;2023-03-13T02:42:57;8.50;;;5.10;;
76848;SDS011;65814;51.134;16.980;2023-03-13T02:45:27;8.90;;;5.20;;
76848;SDS011;65814;51.134;16.980;2023-03-13T02:47:55;8.50;;;5.70;;
76848;SDS011;65814;51.134;16.980;2023-03-13T02:50:23;9.30;;;5.40;;
76848;SDS011;65814;51.134;16.980;2023-03-13T02:52:54;9.60;;;5.40;;
76848;SDS011;65814;51.134;16.980;2023-03-13T02:55:27;9.70;;;5.10;;
76848;SDS011;65814;51.134;16.980;2023-03-13T02:58:00;8.40;;;5.90;;
76848;SDS011;65814;51.134;16.980;2023-03-13T03:00:28;8.40;;;5.60;;
76848;SDS011;65814;51.134;16.980;2023-03-13T03:02:56;8.40;;;5.40;;
76848;SDS011;65814;51.134;16.980;2023-03-13T03:05:24;8.70;;;6.30;;
76848;SDS011;65814;51.134;16.980;2023-03-13T03:07:52;7.80;;;5.60;;
76848;SDS011;65814;51.134;16.980;2023-03-13T03:10:20;9.50;;;6.40;;
76848;SDS011;65814;51.134;16.980;2023-03-13T03:12:48;11.40;;;6.60;;
76848;SDS011;65814;51.134;16.980;2023-03-13T03:15:16;9.90;;;5.70;;
76848;SDS011;65814;51.134;16.980;2023-03-13T03:17:44;12.60;;;7.10;;
76848;SDS011;65814;51.134;16.980;2023-03-13T03:20:12;13.90;;;7.80;;
76848;SDS011;65814;51.134;16.980;2023-03-13T03:22:40;11.10;;;7.40;;
76848;SDS011;65814;51.134;16.980;2023-03-13T03:25:08;13.50;;;8.30;;
76848;SDS011;65814;51.134;16.980;2023-03-13T03:27:36;13.50;;;8.30;;
76848;SDS011;65814;51.134;16.980;2023-03-13T03:30:04;16.10;;;8.70;;
76848;SDS011;65814;51.134;16.980;2023-03-13T03:32:33;11.20;;;7.60;;
76848;SDS011;65814;51.134;16.980;2023-03-13T03:35:02;15.20;;;9.30;;
76848;SDS011;65814;51.134;16.980;2023-03-13T03:37:30;13.40;;;8.30;;
76848;SDS011;65814;51.134;16.980;2023-03-13T03:39:58;16.60;;;8.80;;
76848;SDS011;65814;51.134;16.980;2023-03-13T03:42:26;18.60;;;10.00;;
76848;SDS011;65814;51.134;16.980;2023-03-13T03:44:54;17.00;;;10.10;;
76848;SDS011;65814;51.134;16.980;2023-03-13T03:47:22;15.60;;;9.00;;
76848;SDS011;65814;51.134;16.980;2023-03-13T03:49:50;15.50;;;9.20;;
76848;SDS011;65814;51.134;16.980;2023-03-13T03:52:18;16.40;;;9.70;;
76848;SDS011;65814;51.134;16.980;2023-03-13T03:54:46;16.60;;;9.80;;
76848;SDS011;65814;51.134;16.980;2023-03-13T03:57:13;15.40;;;8.40;;
76848;SDS011;65814;51.134;16.980;2023-03-13T03:59:41;15.20;;;7.90;;
76848;SDS011;65814;51.134;16.980;2023-03-13T04:02:09;15.10;;;8.90;;
76848;SDS011;65814;51.134;16.980;2023-03-13T04:04:37;19.50;;;9.20;;
76848;SDS011;65814;51.134;16.980;2023-03-13T04:07:05;17.90;;;10.00;;
76848;SDS011;65814;51.134;16.980;2023-03-13T04:09:33;17.50;;;9.50;;
76848;SDS011;65814;51.134;16.980;2023-03-13T04:12:01;17.00;;;9.80;;
76848;SDS011;65814;51.134;16.980;2023-03-13T04:14:29;20.60;;;9.70;;
76848;SDS011;65814;51.134;16.980;2023-03-13T04:16:57;16.80;;;8.50;;
76848;SDS011;65814;51.134;16.980;2023-03-13T04:19:25;17.40;;;9.00;;
76848;SDS011;65814;51.134;16.980;2023-03-13T04:21:53;15.30;;;8.50;;
76848;SDS011;65814;51.134;16.980;2023-03-13T04:24:21;19.80;;;8.40;;
76848;SDS011;65814;51.134;16.980;2023-03-13T04:26:49;18.80;;;8.60;;
76848;SDS011;65814;51.134;16.980;2023-03-13T04:29:16;19.90;;;11.50;;
76848;SDS011;65814;51.134;16.980;2023-03-13T04:31:44;19.70;;;9.10;;
76848;SDS011;65814;51.134;16.980;2023-03-13T04:34:15;17.40;;;7.90;;
76848;SDS011;65814;51.134;16.980;2023-03-13T04:36:43;17.40;;;8.50;;
76848;SDS011;65814;51.134;16.980;2023-03-13T04:39:11;14.30;;;7.80;;
76848;SDS011;65814;51.134;16.980;2023-03-13T04:41:39;13.80;;;7.90;;
76848;SDS011;65814;51.134;16.980;2023-03-13T04:44:07;15.40;;;8.80;;
76848;SDS011;65814;51.134;16.980;2023-03-13T04:46:35;14.90;;;8.30;;
76848;SDS011;65814;51.134;16.980;2023-03-13T04:49:03;14.00;;;7.90;;
76848;SDS011;65814;51.134;16.980;2023-03-13T04:51:34;16.70;;;8.50;;
76848;SDS011;65814;51.134;16.980;2023-03-13T04:54:01;20.40;;;9.60;;
76848;SDS011;65814;51.134;16.980;2023-03-13T04:56:30;15.10;;;9.40;;
76848;SDS011;65814;51.134;16.980;2023-03-13T04:59:10;17.20;;;7.70;;
76848;SDS011;65814;51.134;16.980;2023-03-13T05:01:39;14.00;;;8.30;;
76848;SDS011;65814;51.134;16.980;2023-03-13T05:04:07;18.30;;;8.70;;
76848;SDS011;65814;51.134;16.980;2023-03-13T05:06:36;19.50;;;9.20;;
76848;SDS011;65814;51.134;16.980;2023-03-13T05:09:04;14.50;;;7.60;;
76848;SDS011;65814;51.134;16.980;2023-03-13T05:11:32;17.20;;;8.70;;
76848;SDS011;65814;51.134;16.980;2023-03-13T05:14:00;21.30;;;9.30;;
76848;SDS011;65814;51.134;16.980;2023-03-13T05:16:28;15.30;;;8.80;;
76848;SDS011;65814;51.134;16.980;2023-03-13T05:18:56;14.50;;;9.10;;
76848;SDS011;65814;51.134;16.980;2023-03-13T05:21:24;19.70;;;8.70;;
76848;SDS011;65814;51.134;16.980;2023-03-13T05:23:54;17.10;;;9.60;;
76848;SDS011;65814;51.134;16.980;2023-03-13T05:26:22;19.30;;;10.00;;
76848;SDS011;65814;51.134;16.980;2023-03-13T05:28:50;17.30;;;8.40;;
76848;SDS011;65814;51.134;16.980;2023-03-13T05:31:18;22.20;;;9.30;;
76848;SDS011;65814;51.134;16.980;2023-03-13T05:33:46;16.40;;;8.40;;
76848;SDS011;65814;51.134;16.980;2023-03-13T05:36:15;17.40;;;8.00;;
76848;SDS011;65814;51.134;16.980;2023-03-13T05:38:43;16.80;;;8.80;;
76848;SDS011;65814;51.134;16.980;2023-03-13T05:41:12;17.10;;;9.40;;
76848;SDS011;65814;51.134;16.980;2023-03-13T05:43:41;21.70;;;10.80;;
76848;SDS011;65814;51.134;16.980;2023-03-13T05:46:12;16.50;;;9.60;;
76848;SDS011;65814;51.134;16.980;2023-03-13T05:48:40;16.50;;;8.90;;
76848;SDS011;65814;51.134;16.980;2023-03-13T05:51:09;17.30;;;9.70;;
76848;SDS011;65814;51.134;16.980;2023-03-13T05:53:37;16.90;;;9.30;;
76848;SDS011;65814;51.134;16.980;2023-03-13T05:56:05;19.80;;;9.90;;
76848;SDS011;65814;51.134;16.980;2023-03-13T05:58:33;24.70;;;11.20;;
76848;SDS011;65814;51.134;16.980;2023-03-13T06:01:08;24.40;;;11.20;;
76848;SDS011;65814;51.134;16.980;2023-03-13T06:03:37;24.90;;;11.40;;
76848;SDS011;65814;51.134;16.980;2023-03-13T06:06:05;18.90;;;10.10;;
76848;SDS011;65814;51.134;16.980;2023-03-13T06:08:33;18.80;;;10.30;;
76848;SDS011;65814;51.134;16.980;2023-03-13T06:11:01;20.70;;;9.20;;
76848;SDS011;65814;51.134;16.980;2023-03-13T06:13:30;17.60;;;8.90;;
76848;SDS011;65814;51.134;16.980;2023-03-13T06:15:57;21.00;;;9.30;;
76848;SDS011;65814;51.134;16.980;2023-03-13T06:18:25;20.70;;;10.00;;
76848;SDS011;65814;51.134;16.980;2023-03-13T06:20:57;16.40;;;8.20;;
76848;SDS011;65814;51.134;16.980;2023-03-13T06:23:26;19.70;;;10.00;;
76848;SDS011;65814;51.134;16.980;2023-03-13T06:25:54;24.00;;;11.00;;
76848;SDS011;65814;51.134;16.980;2023-03-13T06:28:23;20.90;;;10.90;;
76848;SDS011;65814;51.134;16.980;2023-03-13T06:30:50;25.10;;;11.50;;
76848;SDS011;65814;51.134;16.980;2023-03-13T06:33:18;19.00;;;9.10;;
76848;SDS011;65814;51.134;16.980;2023-03-13T06:35:46;20.10;;;9.40;;
76848;SDS011;65814;51.134;16.980;2023-03-13T06:38:23;18.20;;;9.70;;
76848;SDS011;65814;51.134;16.980;2023-03-13T06:40:52;22.20;;;9.50;;
76848;SDS011;65814;51.134;16.980;2023-03-13T06:43:20;16.80;;;9.20;;
76848;SDS011;65814;51.134;16.980;2023-03-13T06:45:48;15.60;;;10.20;;
76848;SDS011;65814;51.134;16.980;2023-03-13T06:48:16;17.50;;;9.60;;
76848;SDS011;65814;51.134;16.980;2023-03-13T06:50:44;19.70;;;10.10;;
76848;SDS011;65814;51.134;16.980;2023-03-13T06:53:16;16.90;;;9.20;;
76848;SDS011;65814;51.134;16.980;2023-03-13T06:55:45;17.00;;;9.20;;
76848;SDS011;65814;51.134;16.980;2023-03-13T06:58:14;13.80;;;8.80;;
76848;SDS011;65814;51.134;16.980;2023-03-13T07:00:59;19.60;;;10.20;;
76848;SDS011;65814;51.134;16.980;2023-03-13T07:03:32;17.10;;;8.90;;
76848;SDS011;65814;51.134;16.980;2023-03-13T07:06:01;17.30;;;9.70;;
76848;SDS011;65814;51.134;16.980;2023-03-13T07:08:29;17.40;;;9.90;;
76848;SDS011;65814;51.134;16.980;2023-03-13T07:10:58;15.40;;;9.40;;
76848;SDS011;65814;51.134;16.980;2023-03-13T07:13:27;19.90;;;9.50;;
76848;SDS011;65814;51.134;16.980;2023-03-13T07:15:58;17.10;;;8.90;;
76848;SDS011;65814;51.134;16.980;2023-03-13T07:18:27;16.10;;;8.30;;
76848;SDS011;65814;51.134;16.980;2023-03-13T07:20:55;15.30;;;8.30;;
76848;SDS011;65814;51.134;16.980;2023-03-13T07:23:26;16.90;;;8.70;;
76848;SDS011;65814;51.134;16.980;2023-03-13T07:25:56;20.40;;;8.40;;
76848;SDS011;65814;51.134;16.980;2023-03-13T07:28:26;16.40;;;8.80;;
76848;SDS011;65814;51.134;16.980;2023-03-13T07:31:01;24.10;;;8.90;;
76848;SDS011;65814;51.134;16.980;2023-03-13T07:33:31;22.60;;;9.20;;
76848;SDS011;65814;51.134;16.980;2023-03-13T07:35:59;16.10;;;8.30;;
76848;SDS011;65814;51.134;16.980;2023-03-13T07:38:27;14.40;;;9.20;;
76848;SDS011;65814;51.134;16.980;2023-03-13T07:40:56;14.10;;;9.20;;
76848;SDS011;65814;51.134;16.980;2023-03-13T07:43:24;21.50;;;10.20;;
76848;SDS011;65814;51.134;16.980;2023-03-13T07:45:56;17.30;;;8.00;;
76848;SDS011;65814;51.134;16.980;2023-03-13T07:48:34;13.80;;;9.30;;
76848;SDS011;65814;51.134;16.980;2023-03-13T07:51:04;18.60;;;7.40;;
76848;SDS011;65814;51.134;16.980;2023-03-13T07:53:34;15.80;;;8.20;;
76848;SDS011;65814;51.134;16.980;2023-03-13T07:56:03;15.50;;;8.10;;
76848;SDS011;65814;51.134;16.980;2023-03-13T07:58:33;17.20;;;7.50;;
76848;SDS011;65814;51.134;16.980;2023-03-13T08:03:36;11.80;;;7.00;;
76848;SDS011;65814;51.134;16.980;2023-03-13T08:06:07;16.10;;;7.10;;
76848;SDS011;65814;51.134;16.980;2023-03-13T08:08:37;15.70;;;7.70;;
76848;SDS011;65814;51.134;16.980;2023-03-13T08:11:10;10.40;;;5.90;;
76848;SDS011;65814;51.134;16.980;2023-03-13T08:13:39;17.10;;;6.50;;
76848;SDS011;65814;51.134;16.980;2023-03-13T08:16:09;11.50;;;5.90;;
76848;SDS011;65814;51.134;16.980;2023-03-13T08:18:39;16.50;;;8.20;;
76848;SDS011;65814;51.134;16.980;2023-03-13T08:21:24;16.10;;;7.10;;
76848;SDS011;65814;51.134;16.980;2023-03-13T08:23:57;14.50;;;6.50;;
76848;SDS011;65814;51.134;16.980;2023-03-13T08:26:28;12.30;;;6.60;;
76848;SDS011;65814;51.134;16.980;2023-03-13T08:28:58;15.30;;;8.10;;
76848;SDS011;65814;51.134;16.980;2023-03-13T08:31:28;12.20;;;6.00;;
76848;SDS011;65814;51.134;16.980;2023-03-13T08:34:11;15.70;;;6.00;;
76848;SDS011;65814;51.134;16.980;2023-03-13T08:36:39;12.30;;;6.00;;
76848;SDS011;65814;51.134;16.980;2023-03-13T08:39:11;13.20;;;6.60;;
76848;SDS011;65814;51.134;16.980;2023-03-13T08:41:41;13.50;;;6.50;;
76848;SDS011;65814;51.134;16.980;2023-03-13T08:44:10;13.90;;;6.50;;
76848;SDS011;65814;51.134;16.980;2023-03-13T08:46:39;11.80;;;5.70;;
76848;SDS011;65814;51.134;16.980;2023-03-13T08:49:08;14.40;;;6.70;;
76848;SDS011;65814;51.134;16.980;2023-03-13T08:51:36;13.60;;;5.70;;
76848;SDS011;65814;51.134;16.980;2023-03-13T08:54:05;14.90;;;5.70;;
76848;SDS011;65814;51.134;16.980;2023-03-13T08:56:33;12.90;;;5.80;;
76848;SDS011;65814;51.134;16.980;2023-03-13T08:59:02;17.10;;;7.00;;
76848;SDS011;65814;51.134;16.980;2023-03-13T09:01:32;15.00;;;5.70;;
76848;SDS011;65814;51.134;16.980;2023-03-13T09:04:02;12.50;;;5.00;;
76848;SDS011;65814;51.134;16.980;2023-03-13T09:06:32;11.70;;;6.20;;
76848;SDS011;65814;51.134;16.980;2023-03-13T09:09:00;15.50;;;6.10;;
76848;SDS011;65814;51.134;16.980;2023-03-13T09:11:29;11.40;;;5.00;;
76848;SDS011;65814;51.134;16.980;2023-03-13T09:13:57;14.10;;;4.50;;
76848;SDS011;65814;51.134;16.980;2023-03-13T09:16:27;11.90;;;5.00;;
76848;SDS011;65814;51.134;16.980;2023-03-13T09:18:57;15.50;;;5.70;;
76848;SDS011;65814;51.134;16.980;2023-03-13T09:21:26;15.00;;;4.80;;
76848;SDS011;65814;51.134;16.980;2023-03-13T09:23:55;7.50;;;4.40;;
76848;SDS011;65814;51.134;16.980;2023-03-13T09:26:24;11.50;;;4.20;;
76848;SDS011;65814;51.134;16.980;2023-03-13T09:28:54;11.70;;;4.40;;
76848;SDS011;65814;51.134;16.980;2023-03-13T09:31:23;11.20;;;4.20;;
76848;SDS011;65814;51.134;16.980;2023-03-13T09:33:53;8.30;;;3.70;;
76848;SDS011;65814;51.134;16.980;2023-03-13T09:36:21;13.60;;;3.20;;
76848;SDS011;65814;51.134;16.980;2023-03-13T09:38:53;11.30;;;3.80;;
76848;SDS011;65814;51.134;16.980;2023-03-13T09:46:45;12.00;;;4.30;;
76848;SDS011;65814;51.134;16.980;2023-03-13T09:49:27;10.00;;;4.50;;
76848;SDS011;65814;51.134;16.980;2023-03-13T09:52:03;11.70;;;4.30;;
76848;SDS011;65814;51.134;16.980;2023-03-13T09:54:38;13.00;;;3.80;;
76848;SDS011;65814;51.134;16.980;2023-03-13T09:57:15;12.80;;;4.10;;
76848;SDS011;65814;51.134;16.980;2023-03-13T09:59:50;10.80;;;4.30;;
76848;SDS011;65814;51.134;16.980;2023-03-13T10:02:44;8.50;;;3.70;;
76848;SDS011;65814;51.134;16.980;2023-03-13T10:05:19;12.10;;;3.50;;
76848;SDS011;65814;51.134;16.980;2023-03-13T10:07:49;12.60;;;3.80;;
76848;SDS011;65814;51.134;16.980;2023-03-13T10:10:24;6.40;;;2.80;;
76848;SDS011;65814;51.134;16.980;2023-03-13T10:13:02;11.00;;;3.40;;
76848;SDS011;65814;51.134;16.980;2023-03-13T10:15:45;8.70;;;3.80;;
76848;SDS011;65814;51.134;16.980;2023-03-13T10:18:19;9.80;;;3.50;;
76848;SDS011;65814;51.134;16.980;2023-03-13T10:20:50;10.60;;;4.00;;
76848;SDS011;65814;51.134;16.980;2023-03-13T10:26:11;14.50;;;5.40;;
76848;SDS011;65814;51.134;16.980;2023-03-13T10:28:43;13.90;;;4.10;;
76848;SDS011;65814;51.134;16.980;2023-03-13T10:31:13;7.60;;;3.70;;
76848;SDS011;65814;51.134;16.980;2023-03-13T10:33:49;7.40;;;4.10;;
76848;SDS011;65814;51.134;16.980;2023-03-13T10:36:17;10.20;;;3.30;;
76848;SDS011;65814;51.134;16.980;2023-03-13T10:38:47;10.50;;;3.90;;
76848;SDS011;65814;51.134;16.980;2023-03-13T10:41:27;8.30;;;3.40;;
76848;SDS011;65814;51.134;16.980;2023-03-13T10:44:04;13.30;;;3.60;;
76848;SDS011;65814;51.134;16.980;2023-03-13T10:46:35;7.80;;;3.60;;
76848;SDS011;65814;51.134;16.980;2023-03-13T10:49:25;11.80;;;3.70;;
76848;SDS011;65814;51.134;16.980;2023-03-13T10:51:55;10.10;;;3.70;;
76848;SDS011;65814;51.134;16.980;2023-03-13T10:54:27;9.20;;;3.60;;
76848;SDS011;65814;51.134;16.980;2023-03-13T10:59:47;7.80;;;3.70;;
76848;SDS011;65814;51.134;16.980;2023-03-13T11:02:20;14.70;;;3.80;;
76848;SDS011;65814;51.134;16.980;2023-03-13T11:04:52;10.70;;;4.00;;
76848;SDS011;65814;51.134;16.980;2023-03-13T11:12:43;11.10;;;5.20;;
76848;SDS011;65814;51.134;16.980;2023-03-13T11:15:14;9.10;;;3.70;;
76848;SDS011;65814;51.134;16.980;2023-03-13T11:17:44;12.60;;;4.20;;
76848;SDS011;65814;51.134;16.980;2023-03-13T11:20:42;8.40;;;4.00;;
76848;SDS011;65814;51.134;16.980;2023-03-13T11:23:28;10.40;;;3.80;;
76848;SDS011;65814;51.134;16.980;2023-03-13T11:26:04;13.20;;;4.30;;
76848;SDS011;65814;51.134;16.980;2023-03-13T11:36:57;13.30;;;4.20;;
76848;SDS011;65814;51.134;16.980;2023-03-13T11:39:33;11.40;;;4.20;;
76848;SDS011;65814;51.134;16.980;2023-03-13T11:42:12;12.30;;;3.90;;
76848;SDS011;65814;51.134;16.980;2023-03-13T11:45:11;9.00;;;3.40;;
76848;SDS011;65814;51.134;16.980;2023-03-13T11:47:45;10.40;;;3.70;;
76848;SDS011;65814;51.134;16.980;2023-03-13T11:50:23;9.80;;;4.60;;
76848;SDS011;65814;51.134;16.980;2023-03-13T12:01:18;10.10;;;3.90;;
76848;SDS011;65814;51.134;16.980;2023-03-13T12:03:58;13.00;;;4.90;;
76848;SDS011;65814;51.134;16.980;2023-03-13T12:06:32;7.20;;;2.90;;
76848;SDS011;65814;51.134;16.980;2023-03-13T12:09:15;6.30;;;2.80;;
76848;SDS011;65814;51.134;16.980;2023-03-13T12:11:56;7.60;;;2.50;;
76848;SDS011;65814;51.134;16.980;2023-03-13T12:15:15;4.60;;;2.60;;
76848;SDS011;65814;51.134;16.980;2023-03-13T12:17:37;9.30;;;3.40;;
76848;SDS011;65814;51.134;16.980;2023-03-13T12:23:13;8.00;;;3.10;;
76848;SDS011;65814;51.134;16.980;2023-03-13T12:33:43;6.60;;;2.90;;
76848;SDS011;65814;51.134;16.980;2023-03-13T12:36:37;5.60;;;2.70;;
76848;SDS011;65814;51.134;16.980;2023-03-13T12:39:14;4.70;;;2.70;;
76848;SDS011;65814;51.134;16.980;2023-03-13T12:41:49;6.00;;;2.30;;
76848;SDS011;65814;51.134;16.980;2023-03-13T12:44:26;6.50;;;2.70;;
76848;SDS011;65814;51.134;16.980;2023-03-13T12:47:06;5.10;;;2.50;;
76848;SDS011;65814;51.134;16.980;2023-03-13T12:49:42;6.80;;;2.40;;
76848;SDS011;65814;51.134;16.980;2023-03-13T13:01:20;4.00;;;2.80;;
76848;SDS011;65814;51.134;16.980;2023-03-13T13:04:12;6.20;;;2.10;;
76848;SDS011;65814;51.134;16.980;2023-03-13T13:09:27;4.70;;;3.10;;
76848;SDS011;65814;51.134;16.980;2023-03-13T13:12:17;4.90;;;2.40;;
76848;SDS011;65814;51.134;16.980;2023-03-13T13:17:25;5.50;;;3.20;;
76848;SDS011;65814;51.134;16.980;2023-03-13T13:19:56;4.50;;;2.80;;
76848;SDS011;65814;51.134;16.980;2023-03-13T13:30:27;4.50;;;3.00;;
76848;SDS011;65814;51.134;16.980;2023-03-13T13:38:42;6.70;;;3.10;;
76848;SDS011;65814;51.134;16.980;2023-03-13T13:43:39;6.10;;;4.20;;
76848;SDS011;65814;51.134;16.980;2023-03-13T13:46:24;6.30;;;3.80;;
76848;SDS011;65814;51.134;16.980;2023-03-13T13:51:35;7.20;;;3.50;;
76848;SDS011;65814;51.134;16.980;2023-03-13T13:57:20;9.70;;;3.90;;
76848;SDS011;65814;51.134;16.980;2023-03-13T14:02:20;10.60;;;4.70;;
76848;SDS011;65814;51.134;16.980;2023-03-13T14:05:13;5.60;;;4.10;;
76848;SDS011;65814;51.134;16.980;2023-03-13T14:10:36;9.00;;;4.10;;
76848;SDS011;65814;51.134;16.980;2023-03-13T14:13:13;8.10;;;3.70;;
76848;SDS011;65814;51.134;16.980;2023-03-13T14:15:49;10.40;;;3.80;;
76848;SDS011;65814;51.134;16.980;2023-03-13T14:18:23;7.40;;;4.60;;
76848;SDS011;65814;51.134;16.980;2023-03-13T14:20:53;5.60;;;4.30;;
76848;SDS011;65814;51.134;16.980;2023-03-13T14:23:31;6.60;;;4.10;;
76848;SDS011;65814;51.134;16.980;2023-03-13T14:26:10;7.50;;;4.60;;
76848;SDS011;65814;51.134;16.980;2023-03-13T14:28:45;5.90;;;3.60;;
76848;SDS011;65814;51.134;16.980;2023-03-13T14:31:31;9.60;;;3.90;;
76848;SDS011;65814;51.134;16.980;2023-03-13T14:34:04;6.40;;;3.90;;
76848;SDS011;65814;51.134;16.980;2023-03-13T14:36:55;5.10;;;3.90;;
76848;SDS011;65814;51.134;16.980;2023-03-13T14:39:41;7.70;;;4.10;;
76848;SDS011;65814;51.134;16.980;2023-03-13T14:44:45;5.20;;;3.60;;
76848;SDS011;65814;51.134;16.980;2023-03-13T14:47:24;6.20;;;3.60;;
76848;SDS011;65814;51.134;16.980;2023-03-13T14:49:57;8.30;;;3.90;;
76848;SDS011;65814;51.134;16.980;2023-03-13T14:52:28;8.10;;;3.90;;
76848;SDS011;65814;51.134;16.980;2023-03-13T14:54:58;7.80;;;3.40;;
76848;SDS011;65814;51.134;16.980;2023-03-13T14:57:34;5.70;;;3.40;;
76848;SDS011;65814;51.134;16.980;2023-03-13T15:05:48;6.30;;;4.00;;
76848;SDS011;65814;51.134;16.980;2023-03-13T15:08:28;8.10;;;4.30;;
76848;SDS011;65814;51.134;16.980;2023-03-13T15:11:00;6.50;;;3.30;;
76848;SDS011;65814;51.134;16.980;2023-03-13T15:15:59;7.90;;;4.30;;
76848;SDS011;65814;51.134;16.980;2023-03-13T15:18:28;9.40;;;3.50;;
76848;SDS011;65814;51.134;16.980;2023-03-13T15:20:58;6.80;;;3.80;;
76848;SDS011;65814;51.134;16.980;2023-03-13T15:23:52;6.00;;;3.60;;
76848;SDS011;65814;51.134;16.980;2023-03-13T15:26:25;6.40;;;3.70;;
76848;SDS011;65814;51.134;16.980;2023-03-13T15:28:54;8.40;;;3.60;;
76848;SDS011;65814;51.134;16.980;2023-03-13T15:31:24;6.50;;;3.30;;
76848;SDS011;65814;51.134;16.980;2023-03-13T15:33:57;6.60;;;3.70;;
76848;SDS011;65814;51.134;16.980;2023-03-13T15:36:27;6.30;;;3.60;;
76848;SDS011;65814;51.134;16.980;2023-03-13T15:38:56;10.40;;;4.30;;
76848;SDS011;65814;51.134;16.980;2023-03-13T15:41:29;7.30;;;3.70;;
76848;SDS011;65814;51.134;16.980;2023-03-13T15:43:58;6.00;;;3.30;;
76848;SDS011;65814;51.134;16.980;2023-03-13T15:46:31;6.00;;;3.50;;
76848;SDS011;65814;51.134;16.980;2023-03-13T15:48:59;6.70;;;4.10;;
76848;SDS011;65814;51.134;16.980;2023-03-13T15:51:28;7.70;;;4.40;;
76848;SDS011;65814;51.134;16.980;2023-03-13T15:53:58;6.90;;;3.50;;
76848;SDS011;65814;51.134;16.980;2023-03-13T15:56:27;9.60;;;4.90;;
76848;SDS011;65814;51.134;16.980;2023-03-13T15:58:58;7.00;;;3.90;;
76848;SDS011;65814;51.134;16.980;2023-03-13T16:01:27;9.00;;;4.00;;
76848;SDS011;65814;51.134;16.980;2023-03-13T16:03:56;8.50;;;5.20;;
76848;SDS011;65814;51.134;16.980;2023-03-13T16:06:25;7.00;;;4.10;;
76848;SDS011;65814;51.134;16.980;2023-03-13T16:09:01;7.60;;;4.30;;
76848;SDS011;65814;51.134;16.980;2023-03-13T16:11:33;9.80;;;4.40;;
76848;SDS011;65814;51.134;16.980;2023-03-13T16:14:02;8.70;;;3.90;;
76848;SDS011;65814;51.134;16.980;2023-03-13T16:16:34;7.50;;;4.10;;
76848;SDS011;65814;51.134;16.980;2023-03-13T16:19:09;5.70;;;3.30;;
76848;SDS011;65814;51.134;16.980;2023-03-13T16:21:40;8.80;;;3.60;;
76848;SDS011;65814;51.134;16.980;2023-03-13T16:24:15;5.30;;;3.30;;
76848;SDS011;65814;51.134;16.980;2023-03-13T16:26:47;6.20;;;3.80;;
76848;SDS011;65814;51.134;16.980;2023-03-13T16:29:15;6.10;;;3.40;;
76848;SDS011;65814;51.134;16.980;2023-03-13T16:31:43;8.10;;;3.30;;
76848;SDS011;65814;51.134;16.980;2023-03-13T16:34:11;6.90;;;3.40;;
76848;SDS011;65814;51.134;16.980;2023-03-13T16:36:39;5.90;;;3.30;;
76848;SDS011;65814;51.134;16.980;2023-03-13T16:39:10;8.50;;;3.70;;
76848;SDS011;65814;51.134;16.980;2023-03-13T16:41:40;4.50;;;3.20;;